sensor_id;sensor_type;location;lat;lon;timestamp;P1;durP1;ratioP1;P2;durP2;ratioP2
68144;SDS011;55400;51.824;-0.196;2023-05-27T00:02:30;22.40;;;5.40;;
68144;SDS011;55400;51.824;-0.196;2023-05-27T00:06:30;26.60;;;5.70;;
68144;SDS011;55400;51.824;-0.196;2023-05-27T00:10:30;20.50;;;5.20;;
68144;SDS011;55400;51.824;-0.196;2023-05-27T00:14:30;19.60;;;5.50;;
68144;SDS011;55400;51.824;-0.196;2023-05-27T00:18:30;19.20;;;4.80;;
68144;SDS011;55400;51.824;-0.196;2023-05-27T00:22:30;19.60;;;5.40;;
68144;SDS011;55400;51.824;-0.196;2023-05-27T00:26:30;21.10;;;5.30;;
68144;SDS011;55400;51.824;-0.196;2023-05-27T00:30:30;20.90;;;5.60;;
68144;SDS011;55400;51.824;-0.196;2023-05-27T00:34:31;17.90;;;5.30;;
68144;SDS011;55400;51.824;-0.196;2023-05-27T00:38:30;21.70;;;4.80;;
68144;SDS011;55400;51.824;-0.196;2023-05-27T00:42:30;22.40;;;5.60;;
68144;SDS011;55400;51.824;-0.196;2023-05-27T00:46:30;20.90;;;5.50;;
68144;SDS011;55400;51.824;-0.196;2023-05-27T00:50:30;24.60;;;5.80;;
68144;SDS011;55400;51.824;-0.196;2023-05-27T00:54:30;20.50;;;5.40;;
68144;SDS011;55400;51.824;-0.196;2023-05-27T00:58:30;21.40;;;5.20;;
68144;SDS011;55400;51.824;-0.196;2023-05-27T01:02:30;20.80;;;5.50;;
68144;SDS011;55400;51.824;-0.196;2023-05-27T01:06:38;18.70;;;5.30;;
68144;SDS011;55400;51.824;-0.196;2023-05-27T01:10:36;17.20;;;5.00;;
68144;SDS011;55400;51.824;-0.196;2023-05-27T01:14:31;21.50;;;5.50;;
68144;SDS011;55400;51.824;-0.196;2023-05-27T01:22:31;21.70;;;5.40;;
68144;SDS011;55400;51.824;-0.196;2023-05-27T01:26:30;18.70;;;5.00;;
68144;SDS011;55400;51.824;-0.196;2023-05-27T01:30:30;17.90;;;5.20;;
68144;SDS011;55400;51.824;-0.196;2023-05-27T01:34:41;19.60;;;4.90;;
68144;SDS011;55400;51.824;-0.196;2023-05-27T01:38:32;23.00;;;5.60;;
68144;SDS011;55400;51.824;-0.196;2023-05-27T01:42:30;19.20;;;5.80;;
68144;SDS011;55400;51.824;-0.196;2023-05-27T01:46:31;18.70;;;5.30;;
68144;SDS011;55400;51.824;-0.196;2023-05-27T01:50:30;19.50;;;5.00;;
68144;SDS011;55400;51.824;-0.196;2023-05-27T01:54:30;17.70;;;4.40;;
68144;SDS011;55400;51.824;-0.196;2023-05-27T01:58:30;14.00;;;4.20;;
68144;SDS011;55400;51.824;-0.196;2023-05-27T02:02:30;16.00;;;4.50;;
68144;SDS011;55400;51.824;-0.196;2023-05-27T02:06:30;17.20;;;4.60;;
68144;SDS011;55400;51.824;-0.196;2023-05-27T02:10:30;19.30;;;5.30;;
68144;SDS011;55400;51.824;-0.196;2023-05-27T02:14:30;15.40;;;4.80;;
68144;SDS011;55400;51.824;-0.196;2023-05-27T02:18:30;15.00;;;5.00;;
68144;SDS011;55400;51.824;-0.196;2023-05-27T02:26:30;16.30;;;4.70;;
68144;SDS011;55400;51.824;-0.196;2023-05-27T02:30:30;16.80;;;5.10;;
68144;SDS011;55400;51.824;-0.196;2023-05-27T02:34:30;17.50;;;4.70;;
68144;SDS011;55400;51.824;-0.196;2023-05-27T02:38:30;18.40;;;5.00;;
68144;SDS011;55400;51.824;-0.196;2023-05-27T02:42:30;16.40;;;4.40;;
68144;SDS011;55400;51.824;-0.196;2023-05-27T02:46:30;19.20;;;4.90;;
68144;SDS011;55400;51.824;-0.196;2023-05-27T02:50:31;18.00;;;5.00;;
68144;SDS011;55400;51.824;-0.196;2023-05-27T02:54:30;20.90;;;5.10;;
68144;SDS011;55400;51.824;-0.196;2023-05-27T03:02:30;20.60;;;5.60;;
68144;SDS011;55400;51.824;-0.196;2023-05-27T03:06:30;23.60;;;5.20;;
68144;SDS011;55400;51.824;-0.196;2023-05-27T03:14:31;17.60;;;4.80;;
68144;SDS011;55400;51.824;-0.196;2023-05-27T03:18:30;17.80;;;4.50;;
68144;SDS011;55400;51.824;-0.196;2023-05-27T03:22:31;22.10;;;5.10;;
68144;SDS011;55400;51.824;-0.196;2023-05-27T03:26:30;22.20;;;5.00;;
68144;SDS011;55400;51.824;-0.196;2023-05-27T03:34:31;19.70;;;4.80;;
68144;SDS011;55400;51.824;-0.196;2023-05-27T03:38:31;20.90;;;5.20;;
68144;SDS011;55400;51.824;-0.196;2023-05-27T03:42:31;23.50;;;5.30;;
68144;SDS011;55400;51.824;-0.196;2023-05-27T03:46:31;18.10;;;5.20;;
68144;SDS011;55400;51.824;-0.196;2023-05-27T03:50:50;26.70;;;6.00;;
68144;SDS011;55400;51.824;-0.196;2023-05-27T03:54:31;25.90;;;5.50;;
68144;SDS011;55400;51.824;-0.196;2023-05-27T03:58:31;26.10;;;5.80;;
68144;SDS011;55400;51.824;-0.196;2023-05-27T04:02:31;25.90;;;6.10;;
68144;SDS011;55400;51.824;-0.196;2023-05-27T04:06:31;26.50;;;6.70;;
68144;SDS011;55400;51.824;-0.196;2023-05-27T04:10:31;22.60;;;5.90;;
68144;SDS011;55400;51.824;-0.196;2023-05-27T04:14:31;22.40;;;6.40;;
68144;SDS011;55400;51.824;-0.196;2023-05-27T04:18:31;26.10;;;6.20;;
68144;SDS011;55400;51.824;-0.196;2023-05-27T04:22:31;24.20;;;5.90;;
68144;SDS011;55400;51.824;-0.196;2023-05-27T04:27:55;25.60;;;6.00;;
68144;SDS011;55400;51.824;-0.196;2023-05-27T04:30:31;25.60;;;6.00;;
68144;SDS011;55400;51.824;-0.196;2023-05-27T04:34:31;18.00;;;5.80;;
68144;SDS011;55400;51.824;-0.196;2023-05-27T04:38:31;16.20;;;5.30;;
68144;SDS011;55400;51.824;-0.196;2023-05-27T04:42:31;19.60;;;5.70;;
68144;SDS011;55400;51.824;-0.196;2023-05-27T04:46:31;20.40;;;5.10;;
68144;SDS011;55400;51.824;-0.196;2023-05-27T04:50:31;23.40;;;5.80;;
68144;SDS011;55400;51.824;-0.196;2023-05-27T04:54:31;19.80;;;4.90;;
68144;SDS011;55400;51.824;-0.196;2023-05-27T04:58:31;19.20;;;5.40;;
68144;SDS011;55400;51.824;-0.196;2023-05-27T05:02:33;19.50;;;5.20;;
68144;SDS011;55400;51.824;-0.196;2023-05-27T05:06:31;18.10;;;5.00;;
68144;SDS011;55400;51.824;-0.196;2023-05-27T05:10:31;18.60;;;5.10;;
68144;SDS011;55400;51.824;-0.196;2023-05-27T05:14:31;17.50;;;4.70;;
68144;SDS011;55400;51.824;-0.196;2023-05-27T05:18:31;18.40;;;4.90;;
68144;SDS011;55400;51.824;-0.196;2023-05-27T05:22:31;18.60;;;4.80;;
68144;SDS011;55400;51.824;-0.196;2023-05-27T05:26:31;21.00;;;5.40;;
68144;SDS011;55400;51.824;-0.196;2023-05-27T05:30:31;22.60;;;5.10;;
68144;SDS011;55400;51.824;-0.196;2023-05-27T05:34:31;22.00;;;4.80;;
68144;SDS011;55400;51.824;-0.196;2023-05-27T05:38:31;19.00;;;4.60;;
68144;SDS011;55400;51.824;-0.196;2023-05-27T05:42:31;20.60;;;4.70;;
68144;SDS011;55400;51.824;-0.196;2023-05-27T05:46:31;18.10;;;4.40;;
68144;SDS011;55400;51.824;-0.196;2023-05-27T05:50:31;20.60;;;4.70;;
68144;SDS011;55400;51.824;-0.196;2023-05-27T05:54:31;21.70;;;5.00;;
68144;SDS011;55400;51.824;-0.196;2023-05-27T05:58:31;16.20;;;4.60;;
68144;SDS011;55400;51.824;-0.196;2023-05-27T06:02:31;20.20;;;5.30;;
68144;SDS011;55400;51.824;-0.196;2023-05-27T06:06:31;24.40;;;5.10;;
68144;SDS011;55400;51.824;-0.196;2023-05-27T06:10:31;18.10;;;4.20;;
68144;SDS011;55400;51.824;-0.196;2023-05-27T06:14:31;22.30;;;4.80;;
68144;SDS011;55400;51.824;-0.196;2023-05-27T06:18:31;24.20;;;5.00;;
68144;SDS011;55400;51.824;-0.196;2023-05-27T06:22:31;18.50;;;4.70;;
68144;SDS011;55400;51.824;-0.196;2023-05-27T06:26:31;19.80;;;5.00;;
68144;SDS011;55400;51.824;-0.196;2023-05-27T06:34:31;20.60;;;4.60;;
68144;SDS011;55400;51.824;-0.196;2023-05-27T06:38:31;15.60;;;4.20;;
68144;SDS011;55400;51.824;-0.196;2023-05-27T06:42:31;18.50;;;4.40;;
68144;SDS011;55400;51.824;-0.196;2023-05-27T06:46:31;21.70;;;5.00;;
68144;SDS011;55400;51.824;-0.196;2023-05-27T06:50:31;23.40;;;5.10;;
68144;SDS011;55400;51.824;-0.196;2023-05-27T06:54:31;17.10;;;4.60;;
68144;SDS011;55400;51.824;-0.196;2023-05-27T06:58:31;20.80;;;4.70;;
68144;SDS011;55400;51.824;-0.196;2023-05-27T07:02:31;19.00;;;4.50;;
68144;SDS011;55400;51.824;-0.196;2023-05-27T07:06:31;20.00;;;4.90;;
68144;SDS011;55400;51.824;-0.196;2023-05-27T07:10:31;16.90;;;4.10;;
68144;SDS011;55400;51.824;-0.196;2023-05-27T07:14:31;14.30;;;4.00;;
68144;SDS011;55400;51.824;-0.196;2023-05-27T07:18:31;16.30;;;4.70;;
68144;SDS011;55400;51.824;-0.196;2023-05-27T07:22:31;18.70;;;4.80;;
68144;SDS011;55400;51.824;-0.196;2023-05-27T07:26:32;15.70;;;4.10;;
68144;SDS011;55400;51.824;-0.196;2023-05-27T07:30:31;20.70;;;4.90;;
68144;SDS011;55400;51.824;-0.196;2023-05-27T07:34:31;23.60;;;4.80;;
68144;SDS011;55400;51.824;-0.196;2023-05-27T07:38:31;13.80;;;3.80;;
68144;SDS011;55400;51.824;-0.196;2023-05-27T07:42:31;17.10;;;4.40;;
68144;SDS011;55400;51.824;-0.196;2023-05-27T07:46:31;20.60;;;5.00;;
68144;SDS011;55400;51.824;-0.196;2023-05-27T07:50:31;17.20;;;4.80;;
68144;SDS011;55400;51.824;-0.196;2023-05-27T07:54:31;24.90;;;4.50;;
68144;SDS011;55400;51.824;-0.196;2023-05-27T07:58:31;15.90;;;4.40;;
68144;SDS011;55400;51.824;-0.196;2023-05-27T08:02:31;17.70;;;4.90;;
68144;SDS011;55400;51.824;-0.196;2023-05-27T08:06:31;18.80;;;5.10;;
68144;SDS011;55400;51.824;-0.196;2023-05-27T08:10:31;17.10;;;4.60;;
68144;SDS011;55400;51.824;-0.196;2023-05-27T08:14:31;17.70;;;4.70;;
68144;SDS011;55400;51.824;-0.196;2023-05-27T08:18:32;20.60;;;4.50;;
68144;SDS011;55400;51.824;-0.196;2023-05-27T08:22:32;17.50;;;4.60;;
68144;SDS011;55400;51.824;-0.196;2023-05-27T08:26:31;18.80;;;4.70;;
68144;SDS011;55400;51.824;-0.196;2023-05-27T08:30:31;17.90;;;5.00;;
68144;SDS011;55400;51.824;-0.196;2023-05-27T08:34:31;19.50;;;5.10;;
68144;SDS011;55400;51.824;-0.196;2023-05-27T08:38:31;17.90;;;5.10;;
68144;SDS011;55400;51.824;-0.196;2023-05-27T08:42:32;20.10;;;5.10;;
68144;SDS011;55400;51.824;-0.196;2023-05-27T08:46:32;17.00;;;5.70;;
68144;SDS011;55400;51.824;-0.196;2023-05-27T08:50:31;16.20;;;5.00;;
68144;SDS011;55400;51.824;-0.196;2023-05-27T08:54:31;21.00;;;5.30;;
68144;SDS011;55400;51.824;-0.196;2023-05-27T08:58:32;15.50;;;5.20;;
68144;SDS011;55400;51.824;-0.196;2023-05-27T09:02:31;14.60;;;5.00;;
68144;SDS011;55400;51.824;-0.196;2023-05-27T09:06:32;18.30;;;5.70;;
68144;SDS011;55400;51.824;-0.196;2023-05-27T09:10:36;18.20;;;5.80;;
68144;SDS011;55400;51.824;-0.196;2023-05-27T09:14:33;16.90;;;5.40;;
68144;SDS011;55400;51.824;-0.196;2023-05-27T09:18:33;18.20;;;5.30;;
68144;SDS011;55400;51.824;-0.196;2023-05-27T09:22:32;17.60;;;5.60;;
68144;SDS011;55400;51.824;-0.196;2023-05-27T09:26:33;19.60;;;5.80;;
68144;SDS011;55400;51.824;-0.196;2023-05-27T09:30:32;20.50;;;5.60;;
68144;SDS011;55400;51.824;-0.196;2023-05-27T09:34:37;17.60;;;5.50;;
68144;SDS011;55400;51.824;-0.196;2023-05-27T09:38:32;18.70;;;5.60;;
68144;SDS011;55400;51.824;-0.196;2023-05-27T09:42:39;14.70;;;5.10;;
68144;SDS011;55400;51.824;-0.196;2023-05-27T09:46:32;18.90;;;5.50;;
68144;SDS011;55400;51.824;-0.196;2023-05-27T09:50:32;20.70;;;5.70;;
68144;SDS011;55400;51.824;-0.196;2023-05-27T09:54:32;22.60;;;5.90;;
68144;SDS011;55400;51.824;-0.196;2023-05-27T09:58:32;19.90;;;5.50;;
68144;SDS011;55400;51.824;-0.196;2023-05-27T10:02:33;19.30;;;5.80;;
68144;SDS011;55400;51.824;-0.196;2023-05-27T10:06:32;16.60;;;5.40;;
68144;SDS011;55400;51.824;-0.196;2023-05-27T10:10:32;14.20;;;5.10;;
68144;SDS011;55400;51.824;-0.196;2023-05-27T10:14:32;12.40;;;4.80;;
68144;SDS011;55400;51.824;-0.196;2023-05-27T10:18:32;16.50;;;5.30;;
68144;SDS011;55400;51.824;-0.196;2023-05-27T10:22:38;17.50;;;5.30;;
68144;SDS011;55400;51.824;-0.196;2023-05-27T10:26:32;18.30;;;5.40;;
68144;SDS011;55400;51.824;-0.196;2023-05-27T10:30:42;18.90;;;5.20;;
68144;SDS011;55400;51.824;-0.196;2023-05-27T10:34:35;16.40;;;5.10;;
68144;SDS011;55400;51.824;-0.196;2023-05-27T10:38:32;14.70;;;4.80;;
68144;SDS011;55400;51.824;-0.196;2023-05-27T10:42:32;15.10;;;4.30;;
68144;SDS011;55400;51.824;-0.196;2023-05-27T10:46:38;16.10;;;4.80;;
68144;SDS011;55400;51.824;-0.196;2023-05-27T10:50:32;14.90;;;4.70;;
68144;SDS011;55400;51.824;-0.196;2023-05-27T10:54:33;12.30;;;3.90;;
68144;SDS011;55400;51.824;-0.196;2023-05-27T10:58:33;15.30;;;4.30;;
68144;SDS011;55400;51.824;-0.196;2023-05-27T11:02:32;12.10;;;4.10;;
68144;SDS011;55400;51.824;-0.196;2023-05-27T11:06:32;14.70;;;4.10;;
68144;SDS011;55400;51.824;-0.196;2023-05-27T11:10:32;14.00;;;4.50;;
68144;SDS011;55400;51.824;-0.196;2023-05-27T11:14:32;12.70;;;4.30;;
68144;SDS011;55400;51.824;-0.196;2023-05-27T11:18:34;13.40;;;4.50;;
68144;SDS011;55400;51.824;-0.196;2023-05-27T11:22:32;13.20;;;4.20;;
68144;SDS011;55400;51.824;-0.196;2023-05-27T11:26:32;14.10;;;4.30;;
68144;SDS011;55400;51.824;-0.196;2023-05-27T11:30:34;14.70;;;3.80;;
68144;SDS011;55400;51.824;-0.196;2023-05-27T11:34:34;14.60;;;4.10;;
68144;SDS011;55400;51.824;-0.196;2023-05-27T11:38:45;15.80;;;4.00;;
68144;SDS011;55400;51.824;-0.196;2023-05-27T11:42:32;13.40;;;3.70;;
68144;SDS011;55400;51.824;-0.196;2023-05-27T11:46:34;25.50;;;4.30;;
68144;SDS011;55400;51.824;-0.196;2023-05-27T11:50:34;13.90;;;3.70;;
68144;SDS011;55400;51.824;-0.196;2023-05-27T11:54:32;11.70;;;3.50;;
68144;SDS011;55400;51.824;-0.196;2023-05-27T11:58:32;15.60;;;3.80;;
68144;SDS011;55400;51.824;-0.196;2023-05-27T12:02:32;12.10;;;3.70;;
68144;SDS011;55400;51.824;-0.196;2023-05-27T12:06:32;14.00;;;4.10;;
68144;SDS011;55400;51.824;-0.196;2023-05-27T12:10:32;13.10;;;3.50;;
68144;SDS011;55400;51.824;-0.196;2023-05-27T12:14:32;12.10;;;3.50;;
68144;SDS011;55400;51.824;-0.196;2023-05-27T12:18:32;12.90;;;3.80;;
68144;SDS011;55400;51.824;-0.196;2023-05-27T12:26:32;10.10;;;3.30;;
68144;SDS011;55400;51.824;-0.196;2023-05-27T12:30:32;10.40;;;3.50;;
68144;SDS011;55400;51.824;-0.196;2023-05-27T12:34:32;11.70;;;3.30;;
68144;SDS011;55400;51.824;-0.196;2023-05-27T12:38:32;10.50;;;3.50;;
68144;SDS011;55400;51.824;-0.196;2023-05-27T12:42:32;8.40;;;3.10;;
68144;SDS011;55400;51.824;-0.196;2023-05-27T12:46:32;11.40;;;3.50;;
68144;SDS011;55400;51.824;-0.196;2023-05-27T12:50:32;10.90;;;3.30;;
68144;SDS011;55400;51.824;-0.196;2023-05-27T12:54:32;14.10;;;3.30;;
68144;SDS011;55400;51.824;-0.196;2023-05-27T12:58:32;12.70;;;3.60;;
68144;SDS011;55400;51.824;-0.196;2023-05-27T13:02:32;8.10;;;3.20;;
68144;SDS011;55400;51.824;-0.196;2023-05-27T13:06:32;9.10;;;3.00;;
68144;SDS011;55400;51.824;-0.196;2023-05-27T13:10:33;9.90;;;3.40;;
68144;SDS011;55400;51.824;-0.196;2023-05-27T13:14:32;10.80;;;3.40;;
68144;SDS011;55400;51.824;-0.196;2023-05-27T13:18:32;9.60;;;3.00;;
68144;SDS011;55400;51.824;-0.196;2023-05-27T13:22:32;14.90;;;3.60;;
68144;SDS011;55400;51.824;-0.196;2023-05-27T13:26:32;7.70;;;2.90;;
68144;SDS011;55400;51.824;-0.196;2023-05-27T13:30:32;10.10;;;3.40;;
68144;SDS011;55400;51.824;-0.196;2023-05-27T13:34:32;9.40;;;3.10;;
68144;SDS011;55400;51.824;-0.196;2023-05-27T13:38:33;9.20;;;3.30;;
68144;SDS011;55400;51.824;-0.196;2023-05-27T13:42:32;9.50;;;3.30;;
68144;SDS011;55400;51.824;-0.196;2023-05-27T13:46:32;11.20;;;3.30;;
68144;SDS011;55400;51.824;-0.196;2023-05-27T13:50:32;10.70;;;3.50;;
68144;SDS011;55400;51.824;-0.196;2023-05-27T13:54:32;9.80;;;3.20;;
68144;SDS011;55400;51.824;-0.196;2023-05-27T13:58:32;9.60;;;3.00;;
68144;SDS011;55400;51.824;-0.196;2023-05-27T14:02:33;10.40;;;2.70;;
68144;SDS011;55400;51.824;-0.196;2023-05-27T14:06:32;12.60;;;3.30;;
68144;SDS011;55400;51.824;-0.196;2023-05-27T14:10:32;10.50;;;3.10;;
68144;SDS011;55400;51.824;-0.196;2023-05-27T14:14:32;9.90;;;2.90;;
68144;SDS011;55400;51.824;-0.196;2023-05-27T14:18:33;12.00;;;3.10;;
68144;SDS011;55400;51.824;-0.196;2023-05-27T14:22:32;10.00;;;3.20;;
68144;SDS011;55400;51.824;-0.196;2023-05-27T14:26:32;11.80;;;3.20;;
68144;SDS011;55400;51.824;-0.196;2023-05-27T14:30:32;8.60;;;2.90;;
68144;SDS011;55400;51.824;-0.196;2023-05-27T14:38:32;9.50;;;2.70;;
68144;SDS011;55400;51.824;-0.196;2023-05-27T14:42:32;6.90;;;2.70;;
68144;SDS011;55400;51.824;-0.196;2023-05-27T14:46:33;8.50;;;2.70;;
68144;SDS011;55400;51.824;-0.196;2023-05-27T14:50:33;8.40;;;3.10;;
68144;SDS011;55400;51.824;-0.196;2023-05-27T14:54:33;7.40;;;2.90;;
68144;SDS011;55400;51.824;-0.196;2023-05-27T14:58:32;10.60;;;3.00;;
68144;SDS011;55400;51.824;-0.196;2023-05-27T15:02:32;7.90;;;3.00;;
68144;SDS011;55400;51.824;-0.196;2023-05-27T15:06:32;6.90;;;3.00;;
68144;SDS011;55400;51.824;-0.196;2023-05-27T15:10:33;11.40;;;3.10;;
68144;SDS011;55400;51.824;-0.196;2023-05-27T15:18:34;7.60;;;2.90;;
68144;SDS011;55400;51.824;-0.196;2023-05-27T15:22:32;8.90;;;3.00;;
68144;SDS011;55400;51.824;-0.196;2023-05-27T15:26:33;8.50;;;3.10;;
68144;SDS011;55400;51.824;-0.196;2023-05-27T15:30:32;8.80;;;2.90;;
68144;SDS011;55400;51.824;-0.196;2023-05-27T15:34:33;8.90;;;2.80;;
68144;SDS011;55400;51.824;-0.196;2023-05-27T15:38:33;10.50;;;3.10;;
68144;SDS011;55400;51.824;-0.196;2023-05-27T15:42:33;9.40;;;3.00;;
68144;SDS011;55400;51.824;-0.196;2023-05-27T15:46:33;7.40;;;2.90;;
68144;SDS011;55400;51.824;-0.196;2023-05-27T15:50:33;9.60;;;2.90;;
68144;SDS011;55400;51.824;-0.196;2023-05-27T15:54:33;10.30;;;3.30;;
68144;SDS011;55400;51.824;-0.196;2023-05-27T15:58:33;8.80;;;2.80;;
68144;SDS011;55400;51.824;-0.196;2023-05-27T16:02:33;10.40;;;3.00;;
68144;SDS011;55400;51.824;-0.196;2023-05-27T16:06:33;7.60;;;3.20;;
68144;SDS011;55400;51.824;-0.196;2023-05-27T16:10:33;8.50;;;3.20;;
68144;SDS011;55400;51.824;-0.196;2023-05-27T16:14:33;10.30;;;3.30;;
68144;SDS011;55400;51.824;-0.196;2023-05-27T16:18:33;8.30;;;2.90;;
68144;SDS011;55400;51.824;-0.196;2023-05-27T16:22:33;8.80;;;3.00;;
68144;SDS011;55400;51.824;-0.196;2023-05-27T16:26:33;9.10;;;2.80;;
68144;SDS011;55400;51.824;-0.196;2023-05-27T16:30:33;10.20;;;2.60;;
68144;SDS011;55400;51.824;-0.196;2023-05-27T16:34:33;8.30;;;3.00;;
68144;SDS011;55400;51.824;-0.196;2023-05-27T16:38:33;8.50;;;3.30;;
68144;SDS011;55400;51.824;-0.196;2023-05-27T16:42:33;8.60;;;2.80;;
68144;SDS011;55400;51.824;-0.196;2023-05-27T16:46:33;7.50;;;3.00;;
68144;SDS011;55400;51.824;-0.196;2023-05-27T16:50:33;8.40;;;3.00;;
68144;SDS011;55400;51.824;-0.196;2023-05-27T16:54:33;8.20;;;2.80;;
68144;SDS011;55400;51.824;-0.196;2023-05-27T16:58:33;9.90;;;3.00;;
68144;SDS011;55400;51.824;-0.196;2023-05-27T17:02:33;7.40;;;3.00;;
68144;SDS011;55400;51.824;-0.196;2023-05-27T17:06:33;9.40;;;3.00;;
68144;SDS011;55400;51.824;-0.196;2023-05-27T17:10:33;9.30;;;3.00;;
68144;SDS011;55400;51.824;-0.196;2023-05-27T17:14:33;8.10;;;2.90;;
68144;SDS011;55400;51.824;-0.196;2023-05-27T17:18:33;7.80;;;3.00;;
68144;SDS011;55400;51.824;-0.196;2023-05-27T17:22:34;10.40;;;2.90;;
68144;SDS011;55400;51.824;-0.196;2023-05-27T17:26:33;7.60;;;2.90;;
68144;SDS011;55400;51.824;-0.196;2023-05-27T17:30:33;8.90;;;3.30;;
68144;SDS011;55400;51.824;-0.196;2023-05-27T17:34:33;7.60;;;3.20;;
68144;SDS011;55400;51.824;-0.196;2023-05-27T17:38:33;8.80;;;3.50;;
68144;SDS011;55400;51.824;-0.196;2023-05-27T17:42:33;9.10;;;3.40;;
68144;SDS011;55400;51.824;-0.196;2023-05-27T17:46:33;5.70;;;3.00;;
68144;SDS011;55400;51.824;-0.196;2023-05-27T17:50:33;10.00;;;3.10;;
68144;SDS011;55400;51.824;-0.196;2023-05-27T18:10:33;11.40;;;3.40;;
68144;SDS011;55400;51.824;-0.196;2023-05-27T18:14:33;6.90;;;3.00;;
68144;SDS011;55400;51.824;-0.196;2023-05-27T18:22:33;11.20;;;3.30;;
68144;SDS011;55400;51.824;-0.196;2023-05-27T18:26:33;7.20;;;2.90;;
68144;SDS011;55400;51.824;-0.196;2023-05-27T18:34:33;11.40;;;3.50;;
68144;SDS011;55400;51.824;-0.196;2023-05-27T18:38:33;8.40;;;3.60;;
68144;SDS011;55400;51.824;-0.196;2023-05-27T18:42:33;6.20;;;2.90;;
68144;SDS011;55400;51.824;-0.196;2023-05-27T18:46:33;9.00;;;3.30;;
68144;SDS011;55400;51.824;-0.196;2023-05-27T18:50:52;10.00;;;3.20;;
68144;SDS011;55400;51.824;-0.196;2023-05-27T18:54:33;10.70;;;3.10;;
68144;SDS011;55400;51.824;-0.196;2023-05-27T18:58:33;5.50;;;3.10;;
68144;SDS011;55400;51.824;-0.196;2023-05-27T19:02:33;7.60;;;3.10;;
68144;SDS011;55400;51.824;-0.196;2023-05-27T19:06:33;8.50;;;3.10;;
68144;SDS011;55400;51.824;-0.196;2023-05-27T19:10:33;8.10;;;3.10;;
68144;SDS011;55400;51.824;-0.196;2023-05-27T19:14:33;8.90;;;3.10;;
68144;SDS011;55400;51.824;-0.196;2023-05-27T19:18:33;8.10;;;3.30;;
68144;SDS011;55400;51.824;-0.196;2023-05-27T19:22:33;8.30;;;3.50;;
68144;SDS011;55400;51.824;-0.196;2023-05-27T19:26:33;11.00;;;3.70;;
68144;SDS011;55400;51.824;-0.196;2023-05-27T19:30:33;12.10;;;3.50;;
68144;SDS011;55400;51.824;-0.196;2023-05-27T19:34:33;11.20;;;4.30;;
68144;SDS011;55400;51.824;-0.196;2023-05-27T19:38:33;10.60;;;3.90;;
68144;SDS011;55400;51.824;-0.196;2023-05-27T19:42:33;12.00;;;4.10;;
68144;SDS011;55400;51.824;-0.196;2023-05-27T19:46:33;13.70;;;4.00;;
68144;SDS011;55400;51.824;-0.196;2023-05-27T19:50:33;11.30;;;4.00;;
68144;SDS011;55400;51.824;-0.196;2023-05-27T19:54:33;14.70;;;4.10;;
68144;SDS011;55400;51.824;-0.196;2023-05-27T19:58:33;14.80;;;4.20;;
68144;SDS011;55400;51.824;-0.196;2023-05-27T20:02:33;11.90;;;4.00;;
68144;SDS011;55400;51.824;-0.196;2023-05-27T20:06:33;13.10;;;4.10;;
68144;SDS011;55400;51.824;-0.196;2023-05-27T20:10:33;11.70;;;4.20;;
68144;SDS011;55400;51.824;-0.196;2023-05-27T20:14:33;11.30;;;4.00;;
68144;SDS011;55400;51.824;-0.196;2023-05-27T20:18:34;12.60;;;4.40;;
68144;SDS011;55400;51.824;-0.196;2023-05-27T20:22:34;12.60;;;4.50;;
68144;SDS011;55400;51.824;-0.196;2023-05-27T20:26:33;10.80;;;4.40;;
68144;SDS011;55400;51.824;-0.196;2023-05-27T20:30:34;13.60;;;4.50;;
68144;SDS011;55400;51.824;-0.196;2023-05-27T20:34:34;13.70;;;4.50;;
68144;SDS011;55400;51.824;-0.196;2023-05-27T20:38:33;11.60;;;4.10;;
68144;SDS011;55400;51.824;-0.196;2023-05-27T20:42:34;9.80;;;4.20;;
68144;SDS011;55400;51.824;-0.196;2023-05-27T20:46:33;14.10;;;4.60;;
68144;SDS011;55400;51.824;-0.196;2023-05-27T20:50:34;13.80;;;4.30;;
68144;SDS011;55400;51.824;-0.196;2023-05-27T20:54:33;11.60;;;4.20;;
68144;SDS011;55400;51.824;-0.196;2023-05-27T20:58:33;14.90;;;4.60;;
68144;SDS011;55400;51.824;-0.196;2023-05-27T21:02:35;12.90;;;4.20;;
68144;SDS011;55400;51.824;-0.196;2023-05-27T21:06:34;11.40;;;4.10;;
68144;SDS011;55400;51.824;-0.196;2023-05-27T21:10:33;12.70;;;4.20;;
68144;SDS011;55400;51.824;-0.196;2023-05-27T21:14:34;11.90;;;4.70;;
68144;SDS011;55400;51.824;-0.196;2023-05-27T21:18:34;13.40;;;4.50;;
68144;SDS011;55400;51.824;-0.196;2023-05-27T21:22:34;14.80;;;4.50;;
68144;SDS011;55400;51.824;-0.196;2023-05-27T21:26:34;11.60;;;4.80;;
68144;SDS011;55400;51.824;-0.196;2023-05-27T21:30:34;17.90;;;5.20;;
68144;SDS011;55400;51.824;-0.196;2023-05-27T21:34:34;14.80;;;5.00;;
68144;SDS011;55400;51.824;-0.196;2023-05-27T21:38:34;12.20;;;4.80;;
68144;SDS011;55400;51.824;-0.196;2023-05-27T21:42:34;17.70;;;4.90;;
68144;SDS011;55400;51.824;-0.196;2023-05-27T21:46:34;15.60;;;4.80;;
68144;SDS011;55400;51.824;-0.196;2023-05-27T21:50:34;16.60;;;5.00;;
68144;SDS011;55400;51.824;-0.196;2023-05-27T21:54:34;13.80;;;4.70;;
68144;SDS011;55400;51.824;-0.196;2023-05-27T21:58:35;13.40;;;4.80;;
68144;SDS011;55400;51.824;-0.196;2023-05-27T22:02:36;15.10;;;5.00;;
68144;SDS011;55400;51.824;-0.196;2023-05-27T22:06:39;17.40;;;4.80;;
68144;SDS011;55400;51.824;-0.196;2023-05-27T22:10:34;16.40;;;4.70;;
68144;SDS011;55400;51.824;-0.196;2023-05-27T22:14:34;12.80;;;4.40;;
68144;SDS011;55400;51.824;-0.196;2023-05-27T22:18:34;12.00;;;4.60;;
68144;SDS011;55400;51.824;-0.196;2023-05-27T22:22:34;11.60;;;4.80;;
68144;SDS011;55400;51.824;-0.196;2023-05-27T22:26:34;14.70;;;4.30;;
68144;SDS011;55400;51.824;-0.196;2023-05-27T22:30:34;11.30;;;4.60;;
68144;SDS011;55400;51.824;-0.196;2023-05-27T22:34:34;13.40;;;4.60;;
68144;SDS011;55400;51.824;-0.196;2023-05-27T22:38:34;15.80;;;4.60;;
68144;SDS011;55400;51.824;-0.196;2023-05-27T22:42:34;13.00;;;4.50;;
68144;SDS011;55400;51.824;-0.196;2023-05-27T22:46:34;14.40;;;4.80;;
68144;SDS011;55400;51.824;-0.196;2023-05-27T22:50:34;11.60;;;4.70;;
68144;SDS011;55400;51.824;-0.196;2023-05-27T22:54:34;11.20;;;4.60;;
68144;SDS011;55400;51.824;-0.196;2023-05-27T22:58:34;14.40;;;5.10;;
68144;SDS011;55400;51.824;-0.196;2023-05-27T23:02:34;13.50;;;4.90;;
68144;SDS011;55400;51.824;-0.196;2023-05-27T23:06:34;15.80;;;5.10;;
68144;SDS011;55400;51.824;-0.196;2023-05-27T23:10:34;12.50;;;4.70;;
68144;SDS011;55400;51.824;-0.196;2023-05-27T23:14:34;15.60;;;6.10;;
68144;SDS011;55400;51.824;-0.196;2023-05-27T23:18:34;14.40;;;4.50;;
68144;SDS011;55400;51.824;-0.196;2023-05-27T23:22:34;14.20;;;5.00;;
68144;SDS011;55400;51.824;-0.196;2023-05-27T23:26:34;10.10;;;4.40;;
68144;SDS011;55400;51.824;-0.196;2023-05-27T23:30:34;12.20;;;4.80;;
68144;SDS011;55400;51.824;-0.196;2023-05-27T23:34:34;17.60;;;4.60;;
68144;SDS011;55400;51.824;-0.196;2023-05-27T23:38:34;15.80;;;4.80;;
68144;SDS011;55400;51.824;-0.196;2023-05-27T23:42:34;11.00;;;4.50;;
68144;SDS011;55400;51.824;-0.196;2023-05-27T23:46:34;11.60;;;4.20;;
68144;SDS011;55400;51.824;-0.196;2023-05-27T23:50:34;8.60;;;4.10;;
68144;SDS011;55400;51.824;-0.196;2023-05-27T23:54:34;11.90;;;4.20;;
68144;SDS011;55400;51.824;-0.196;2023-05-27T23:58:34;11.30;;;4.50;;
